Time;durP1;ratioP1;P1;durP2;ratioP2;P2;SDS_P1;SDS_P2;PMS_P1;PMS_P2;Temp;Humidity;BMP_temperature;BMP_pressure;BME280_temperature;BME280_humidity;BME280_pressure;Samples;Min_cycle;Max_cycle;Signal;HPM_P1;HPM_P2
2024/03/16 00:01:04;;;;;;;1.63;1.53;;;11.90;99.90;;;;;;4869383;29;20440;-83
2024/03/16 00:03:31;;;;;;;0.60;0.60;;;11.90;99.90;;;;;;4861981;29;20467;-82
2024/03/16 00:05:58;;;;;;;1.35;1.35;;;11.90;99.90;;;;;;4868794;29;20204;-80
2024/03/16 00:08:26;;;;;;;1.15;1.15;;;12.00;99.90;;;;;;4869130;29;20599;-80
2024/03/16 00:10:56;;;;;;;0.87;0.87;;;11.90;99.90;;;;;;4862696;29;20374;-80
2024/03/16 00:13:24;;;;;;;2.20;2.10;;;11.90;99.90;;;;;;4867594;29;20436;-80
2024/03/16 00:15:51;;;;;;;2.70;2.10;;;11.90;99.90;;;;;;4868018;29;20434;-79
2024/03/16 00:18:19;;;;;;;1.63;1.53;;;11.80;99.90;;;;;;4867570;29;20435;-80
2024/03/16 00:20:46;;;;;;;2.40;2.30;;;11.90;99.90;;;;;;4861373;29;20459;-81
2024/03/16 00:23:13;;;;;;;6.73;3.13;;;11.90;99.90;;;;;;4873861;29;20509;-81
2024/03/16 00:25:43;;;;;;;1.90;1.80;;;11.80;99.90;;;;;;4868759;29;20487;-80
2024/03/16 00:28:11;;;;;;;2.20;2.10;;;11.80;99.90;;;;;;4861775;29;20477;-81
2024/03/16 00:30:40;;;;;;;1.83;1.73;;;11.90;99.90;;;;;;4865211;29;20453;-81
2024/03/16 00:33:07;;;;;;;2.45;2.35;;;11.90;99.90;;;;;;4869086;29;20437;-80
2024/03/16 00:35:36;;;;;;;0.87;0.87;;;11.90;99.90;;;;;;4869324;29;20235;-81
2024/03/16 00:38:04;;;;;;;1.07;1.07;;;11.80;99.90;;;;;;4875161;29;20543;-81
2024/03/16 00:40:32;;;;;;;0.60;0.60;;;11.90;99.90;;;;;;4861639;29;20510;-81
2024/03/16 00:42:59;;;;;;;1.73;1.63;;;11.80;99.90;;;;;;4864260;29;20701;-80
2024/03/16 00:45:26;;;;;;;2.53;2.43;;;11.90;99.90;;;;;;4868831;29;20456;-81
2024/03/16 00:47:55;;;;;;;2.20;2.10;;;11.90;99.90;;;;;;4867481;29;20474;-80
2024/03/16 00:50:24;;;;;;;2.63;2.43;;;11.70;99.90;;;;;;4868120;29;20240;-81
2024/03/16 00:52:52;;;;;;;2.00;1.67;;;11.60;99.90;;;;;;4863610;29;20431;-81
2024/03/16 00:55:19;;;;;;;2.92;2.78;;;11.50;99.90;;;;;;4866731;29;20461;-80
2024/03/16 00:57:46;;;;;;;2.40;2.20;;;11.40;99.90;;;;;;4865152;29;20214;-80
2024/03/16 01:00:14;;;;;;;2.00;1.90;;;11.30;99.90;;;;;;4868119;29;20459;-81
2024/03/16 01:02:42;;;;;;;4.00;3.80;;;11.20;99.90;;;;;;4865008;29;20399;-81
2024/03/16 01:05:10;;;;;;;1.95;1.85;;;10.90;99.90;;;;;;4877169;29;20565;-81
2024/03/16 01:07:37;;;;;;;1.55;1.45;;;10.90;99.90;;;;;;4858983;29;20795;-82
2024/03/16 01:10:04;;;;;;;4.45;4.15;;;10.80;99.90;;;;;;4883305;29;20291;-82
2024/03/16 01:12:35;;;;;;;1.38;1.35;;;10.70;99.90;;;;;;4884436;29;20203;-83
2024/03/16 01:15:03;;;;;;;1.98;1.88;;;10.80;99.90;;;;;;4890002;29;20280;-79
2024/03/16 01:17:32;;;;;;;0.98;0.98;;;10.70;99.90;;;;;;4882375;29;20218;-81
2024/03/16 01:20:00;;;;;;;2.15;2.05;;;10.70;99.90;;;;;;4872337;29;20218;-81
2024/03/16 01:22:27;;;;;;;12.65;4.05;;;10.60;99.90;;;;;;4867050;29;20268;-81
2024/03/16 01:24:55;;;;;;;0.95;0.95;;;10.50;99.90;;;;;;4867722;29;20292;-80
2024/03/16 01:27:24;;;;;;;1.42;1.42;;;10.50;99.90;;;;;;4867937;29;20218;-80
2024/03/16 01:29:52;;;;;;;2.63;2.53;;;10.40;99.90;;;;;;4875927;29;20198;-82
2024/03/16 01:32:18;;;;;;;3.10;2.65;;;10.40;99.90;;;;;;4886818;29;20271;-81
2024/03/16 01:34:46;;;;;;;2.53;2.42;;;10.40;99.90;;;;;;4889245;29;20203;-81
2024/03/16 01:37:14;;;;;;;2.63;2.42;;;10.60;99.90;;;;;;4877782;29;20216;-80
2024/03/16 01:39:44;;;;;;;2.78;1.67;;;10.60;99.90;;;;;;4870270;29;20262;-81
2024/03/16 01:42:12;;;;;;;3.10;2.95;;;10.70;99.90;;;;;;4867983;29;20251;-80
2024/03/16 01:44:40;;;;;;;2.15;2.05;;;10.80;99.90;;;;;;4861442;29;20231;-79
2024/03/16 01:47:10;;;;;;;1.92;1.83;;;10.90;99.90;;;;;;4872054;29;20202;-81
2024/03/16 01:49:37;;;;;;;2.22;2.10;;;10.90;99.90;;;;;;4872197;29;20246;-83
2024/03/16 01:52:04;;;;;;;0.70;0.70;;;11.00;99.90;;;;;;4867873;29;20289;-81
2024/03/16 01:54:31;;;;;;;3.80;3.55;;;10.90;99.90;;;;;;4860860;29;20406;-81
2024/03/16 01:56:58;;;;;;;2.15;2.00;;;10.60;99.90;;;;;;4867613;29;20211;-83
2024/03/16 01:59:25;;;;;;;2.22;2.13;;;10.40;99.90;;;;;;4867754;29;20286;-81
2024/03/16 02:01:53;;;;;;;1.77;1.67;;;10.50;99.90;;;;;;4868421;29;20511;-82
2024/03/16 02:04:23;;;;;;;2.85;2.67;;;10.10;99.90;;;;;;4881611;29;20289;-80
2024/03/16 02:06:50;;;;;;;2.30;2.20;;;10.00;99.90;;;;;;4859781;29;20214;-81
2024/03/16 02:09:19;;;;;;;2.08;1.98;;;9.90;99.90;;;;;;4870079;29;20210;-80
2024/03/16 02:11:45;;;;;;;2.70;2.45;;;9.90;99.90;;;;;;4873216;29;20246;-80
2024/03/16 02:14:12;;;;;;;1.55;1.45;;;9.90;99.90;;;;;;4869974;29;20245;-81
2024/03/16 02:16:40;;;;;;;1.70;1.60;;;9.90;99.90;;;;;;4875968;29;20236;-81
2024/03/16 02:19:14;;;;;;;2.20;2.05;;;9.90;99.90;;;;;;4878977;29;20450;-81
2024/03/16 02:21:42;;;;;;;2.95;2.50;;;9.80;99.90;;;;;;4870605;29;20517;-81
2024/03/16 02:24:11;;;;;;;4.53;4.22;;;9.80;99.90;;;;;;4874380;29;20256;-82
2024/03/16 02:26:39;;;;;;;1.67;1.58;;;9.70;99.90;;;;;;4879595;29;20302;-82
2024/03/16 02:29:07;;;;;;;1.30;1.30;;;9.70;99.90;;;;;;4870464;29;20262;-81
2024/03/16 02:31:38;;;;;;;0.73;0.73;;;9.70;99.90;;;;;;4866715;29;20206;-81
2024/03/16 02:34:07;;;;;;;1.50;1.40;;;9.70;99.90;;;;;;4874850;29;20209;-81
2024/03/16 02:36:35;;;;;;;1.13;1.02;;;9.70;99.90;;;;;;4872728;29;20214;-81
2024/03/16 02:39:02;;;;;;;0.82;0.70;;;9.70;99.90;;;;;;4866630;29;20209;-80
2024/03/16 02:41:30;;;;;;;1.95;1.85;;;9.80;99.90;;;;;;4868401;29;20236;-80
2024/03/16 02:43:58;;;;;;;2.78;2.45;;;9.70;99.90;;;;;;4874185;29;20237;-79
2024/03/16 02:46:25;;;;;;;1.25;1.23;;;9.70;99.90;;;;;;4867868;29;20229;-78
2024/03/16 02:48:54;;;;;;;0.68;0.68;;;9.90;99.90;;;;;;4872318;29;20238;-79
2024/03/16 02:51:22;;;;;;;2.28;2.15;;;10.10;99.90;;;;;;4876650;29;20202;-80
2024/03/16 02:53:51;;;;;;;1.23;1.23;;;10.10;99.90;;;;;;4869973;29;20210;-79
2024/03/16 02:56:19;;;;;;;2.20;2.10;;;10.20;99.90;;;;;;4867788;29;20238;-79
2024/03/16 02:58:46;;;;;;;3.28;2.97;;;10.20;99.90;;;;;;4861156;29;20281;-80
2024/03/16 03:01:17;;;;;;;2.03;1.92;;;10.30;99.90;;;;;;4870412;29;20444;-79
2024/03/16 03:03:47;;;;;;;2.85;1.85;;;10.40;99.90;;;;;;4867195;29;20251;-80
2024/03/16 03:06:18;;;;;;;1.52;1.52;;;10.50;99.90;;;;;;4864674;29;20253;-80
2024/03/16 03:08:47;;;;;;;0.65;0.65;;;10.40;99.90;;;;;;4868918;29;20274;-80
2024/03/16 03:11:14;;;;;;;0.50;0.50;;;10.40;99.90;;;;;;4865078;29;20587;-79
2024/03/16 03:13:42;;;;;;;2.35;2.15;;;10.50;99.90;;;;;;4873037;29;20533;-81
2024/03/16 03:16:09;;;;;;;3.50;2.40;;;10.50;99.90;;;;;;4867921;29;20263;-80
2024/03/16 03:18:41;;;;;;;0.88;0.88;;;10.50;99.90;;;;;;4863197;29;20214;-82
2024/03/16 03:21:08;;;;;;;1.00;1.00;;;10.40;99.90;;;;;;4866343;29;20238;-78
2024/03/16 03:23:35;;;;;;;1.48;1.38;;;10.30;99.90;;;;;;4864289;29;20281;-80
2024/03/16 03:26:02;;;;;;;1.08;1.08;;;10.30;99.90;;;;;;4867292;29;20299;-78
2024/03/16 03:28:29;;;;;;;3.15;2.88;;;10.20;99.90;;;;;;4866041;29;20229;-79
2024/03/16 03:30:56;;;;;;;3.70;3.35;;;10.10;99.90;;;;;;4869222;29;20269;-79
2024/03/16 03:33:26;;;;;;;2.00;1.90;;;10.00;99.90;;;;;;4844539;29;20423;-80
2024/03/16 03:35:53;;;;;;;1.25;1.13;;;9.90;99.90;;;;;;4866070;29;20651;-81
2024/03/16 03:38:20;;;;;;;1.25;1.25;;;9.90;99.90;;;;;;4865472;29;20217;-80
2024/03/16 03:40:49;;;;;;;2.20;2.10;;;9.80;99.90;;;;;;4868760;29;20221;-79
2024/03/16 03:43:19;;;;;;;1.48;1.48;;;9.70;99.90;;;;;;4865790;29;20563;-80
2024/03/16 03:45:57;;;;;;;0.85;0.85;;;9.60;99.90;;;;;;4865849;29;20266;-80
2024/03/16 03:50:57;;;;;;;2.90;2.05;;;9.50;99.90;;;;;;4876826;29;20218;-80
2024/03/16 03:53:26;;;;;;;0.70;0.70;;;9.40;99.90;;;;;;4871931;29;20213;-80
2024/03/16 03:55:54;;;;;;;1.25;1.20;;;9.50;99.90;;;;;;4869619;29;20289;-81
2024/03/16 03:58:22;;;;;;;1.75;1.65;;;9.40;99.90;;;;;;4869323;29;20389;-78
2024/03/16 04:00:49;;;;;;;1.27;1.27;;;9.40;99.90;;;;;;4871226;29;20263;-79
2024/03/16 04:03:18;;;;;;;2.83;2.63;;;9.40;99.90;;;;;;4870851;29;20233;-80
2024/03/16 04:05:51;;;;;;;1.40;1.30;;;9.20;99.90;;;;;;4871390;29;20236;-79
2024/03/16 04:08:21;;;;;;;5.68;4.40;;;9.20;99.90;;;;;;4873546;29;20229;-81
2024/03/16 04:10:49;;;;;;;1.20;1.20;;;9.20;99.90;;;;;;4877724;29;20206;-79
2024/03/16 04:13:17;;;;;;;2.55;2.35;;;9.10;99.90;;;;;;4886727;29;20226;-80
2024/03/16 04:15:44;;;;;;;2.75;2.65;;;9.10;99.90;;;;;;4883283;29;20453;-80
2024/03/16 04:18:11;;;;;;;2.22;2.03;;;9.00;99.90;;;;;;4869975;29;20220;-79
2024/03/16 04:20:38;;;;;;;1.02;1.02;;;8.90;99.90;;;;;;4868013;29;20214;-80
2024/03/16 04:23:18;;;;;;;3.63;3.30;;;8.90;99.90;;;;;;4862847;29;20217;-79
2024/03/16 04:25:45;;;;;;;2.35;2.20;;;8.90;99.90;;;;;;4868611;29;20288;-80
2024/03/16 04:28:13;;;;;;;1.25;1.25;;;8.80;99.90;;;;;;4874758;29;20202;-80
2024/03/16 04:30:42;;;;;;;1.85;1.75;;;8.80;99.90;;;;;;4875684;29;20278;-79
2024/03/16 04:33:09;;;;;;;1.67;1.58;;;8.80;99.90;;;;;;4863227;29;20510;-79
2024/03/16 04:35:36;;;;;;;2.17;2.08;;;8.80;99.90;;;;;;4876365;29;20238;-81
2024/03/16 04:38:03;;;;;;;2.42;2.30;;;8.70;99.90;;;;;;4886108;29;20292;-81
2024/03/16 04:40:30;;;;;;;3.08;2.88;;;8.70;99.90;;;;;;4870806;29;20206;-79
2024/03/16 04:42:58;;;;;;;4.35;3.95;;;8.70;99.90;;;;;;4864043;29;20226;-79
2024/03/16 04:45:28;;;;;;;2.47;2.38;;;8.60;99.90;;;;;;4863297;29;20460;-79
2024/03/16 04:47:55;;;;;;;2.03;1.92;;;8.70;99.90;;;;;;4856941;29;20211;-81
2024/03/16 04:50:22;;;;;;;1.05;1.05;;;8.60;99.90;;;;;;4857089;29;20206;-79
2024/03/16 04:52:49;;;;;;;2.38;1.63;;;8.50;99.90;;;;;;4857826;29;20487;-79
2024/03/16 04:55:16;;;;;;;2.10;2.00;;;8.50;99.90;;;;;;4863558;29;20219;-79
2024/03/16 04:57:44;;;;;;;1.05;1.05;;;8.50;99.90;;;;;;4858612;29;20207;-79
2024/03/16 05:00:13;;;;;;;2.65;2.45;;;8.60;99.90;;;;;;4858270;29;20217;-80
2024/03/16 05:02:41;;;;;;;4.15;3.95;;;8.60;99.90;;;;;;4868797;29;20271;-80
2024/03/16 05:05:08;;;;;;;1.85;1.75;;;8.50;99.90;;;;;;4863434;29;20241;-81
2024/03/16 05:07:41;;;;;;;2.50;1.60;;;8.50;99.90;;;;;;4863569;29;20273;-79
2024/03/16 05:10:08;;;;;;;1.35;1.13;;;8.50;99.90;;;;;;4862265;29;20214;-81
2024/03/16 05:12:39;;;;;;;2.85;2.65;;;8.40;99.90;;;;;;4850176;29;20219;-80
2024/03/16 05:15:07;;;;;;;0.95;0.95;;;8.50;99.90;;;;;;4876747;29;20218;-82
2024/03/16 05:17:41;;;;;;;2.30;2.20;;;8.50;99.90;;;;;;4852607;29;20282;-82
2024/03/16 05:20:09;;;;;;;2.17;2.08;;;8.50;99.90;;;;;;4861374;29;20202;-81
2024/03/16 05:22:39;;;;;;;2.08;1.98;;;8.50;99.90;;;;;;4867980;29;20341;-81
2024/03/16 05:25:07;;;;;;;1.65;1.55;;;8.50;99.90;;;;;;4875820;29;20237;-80
2024/03/16 05:27:40;;;;;;;1.95;1.85;;;8.70;99.90;;;;;;4875089;29;20514;-84
2024/03/16 05:30:11;;;;;;;2.65;2.47;;;8.80;99.90;;;;;;4868019;29;20194;-84
2024/03/16 05:32:40;;;;;;;3.90;3.35;;;8.80;99.90;;;;;;4854478;29;20567;-79
2024/03/16 05:35:08;;;;;;;0.63;0.63;;;8.80;99.90;;;;;;4867119;29;20259;-81
2024/03/16 05:37:36;;;;;;;2.78;2.58;;;9.00;99.90;;;;;;4858163;29;20218;-80
2024/03/16 05:40:03;;;;;;;3.58;3.33;;;9.00;99.90;;;;;;4858578;29;20211;-81
2024/03/16 05:42:33;;;;;;;5.43;2.28;;;9.00;99.90;;;;;;4863763;29;20404;-80
2024/03/16 05:45:01;;;;;;;1.92;1.83;;;9.10;99.90;;;;;;4865247;29;20419;-78
2024/03/16 05:47:28;;;;;;;2.33;2.22;;;9.10;99.90;;;;;;4868912;29;20225;-80
2024/03/16 05:50:03;;;;;;;3.25;3.05;;;9.10;99.90;;;;;;4861096;29;20243;-79
2024/03/16 05:52:30;;;;;;;2.58;2.42;;;9.30;99.90;;;;;;4867785;29;20252;-79
2024/03/16 05:55:04;;;;;;;0.85;0.85;;;9.30;99.90;;;;;;4868327;29;20214;-79
2024/03/16 05:57:31;;;;;;;2.45;2.28;;;9.40;99.90;;;;;;4877003;29;20214;-79
2024/03/16 05:59:58;;;;;;;0.88;0.88;;;9.60;99.90;;;;;;4879995;29;20214;-80
2024/03/16 06:02:25;;;;;;;1.75;1.65;;;9.90;99.90;;;;;;4881208;29;20269;-78
2024/03/16 06:04:52;;;;;;;2.17;0.95;;;9.90;99.90;;;;;;4888947;29;20241;-81
2024/03/16 06:07:20;;;;;;;1.45;1.40;;;10.00;99.90;;;;;;4880382;29;20237;-82
2024/03/16 06:09:47;;;;;;;1.88;1.77;;;10.10;99.90;;;;;;4874246;29;20463;-80
2024/03/16 06:12:14;;;;;;;1.35;1.10;;;10.30;99.90;;;;;;4878811;29;20211;-80
2024/03/16 06:14:42;;;;;;;0.40;0.40;;;10.70;99.90;;;;;;4880471;29;20268;-80
2024/03/16 06:17:08;;;;;;;0.85;0.85;;;10.90;99.90;;;;;;4887174;29;20215;-80
2024/03/16 06:19:35;;;;;;;1.23;1.23;;;11.00;99.90;;;;;;4873130;29;20274;-80
2024/03/16 06:22:05;;;;;;;5.43;4.90;;;11.10;99.90;;;;;;4874559;29;20267;-82
2024/03/16 06:24:33;;;;;;;1.13;1.13;;;10.80;99.90;;;;;;4889272;29;20199;-81
2024/03/16 06:27:05;;;;;;;1.25;1.25;;;10.70;99.90;;;;;;4880405;29;20206;-80
2024/03/16 06:29:32;;;;;;;2.22;2.13;;;10.70;99.90;;;;;;4880957;29;20208;-80
2024/03/16 06:32:08;;;;;;;1.23;1.20;;;10.70;99.90;;;;;;4875424;29;20207;-81
2024/03/16 06:34:38;;;;;;;1.55;1.48;;;10.70;99.90;;;;;;4858153;29;20212;-81
2024/03/16 06:37:06;;;;;;;2.10;1.88;;;10.80;99.90;;;;;;4852785;29;20288;-79
2024/03/16 06:39:33;;;;;;;2.40;2.20;;;10.90;99.90;;;;;;4873417;29;20208;-80
2024/03/16 06:42:00;;;;;;;1.17;1.17;;;10.90;99.90;;;;;;4868496;29;20215;-80
2024/03/16 06:44:28;;;;;;;2.33;2.23;;;11.00;99.90;;;;;;4858900;29;20235;-80
2024/03/16 06:46:56;;;;;;;1.25;1.15;;;11.00;99.90;;;;;;4867458;29;20755;-79
2024/03/16 06:49:25;;;;;;;0.53;0.53;;;11.10;99.90;;;;;;4875010;29;20230;-82
2024/03/16 06:51:57;;;;;;;1.15;1.15;;;11.20;99.90;;;;;;4861696;29;20463;-84
2024/03/16 06:54:26;;;;;;;1.75;1.65;;;11.60;99.90;;;;;;4873166;29;20272;-83
2024/03/16 06:56:57;;;;;;;0.60;0.60;;;12.20;99.90;;;;;;4871407;29;20218;-83
2024/03/16 06:59:26;;;;;;;0.80;0.80;;;12.90;99.90;;;;;;4878180;29;20638;-82
2024/03/16 07:01:56;;;;;;;6.03;2.47;;;13.80;99.90;;;;;;4872086;29;20428;-84
2024/03/16 07:04:22;;;;;;;1.30;1.30;;;14.50;99.90;;;;;;4875505;29;20461;-82
2024/03/16 07:06:50;;;;;;;1.50;1.50;;;14.50;99.90;;;;;;4880140;29;20478;-87
2024/03/16 07:09:18;;;;;;;1.83;1.73;;;15.50;99.90;;;;;;4887700;29;20453;-85
2024/03/16 07:11:45;;;;;;;1.07;1.00;;;15.30;99.90;;;;;;4889180;29;20589;-87
2024/03/16 07:14:14;;;;;;;0.83;0.83;;;14.80;99.90;;;;;;4867873;29;20470;-84
2024/03/16 07:16:41;;;;;;;1.20;1.17;;;14.70;99.90;;;;;;4873320;29;20444;-84
2024/03/16 07:19:08;;;;;;;1.30;1.27;;;14.70;99.90;;;;;;4876944;29;20496;-83
2024/03/16 07:21:35;;;;;;;1.03;1.03;;;14.80;99.90;;;;;;4870007;29;20804;-83
2024/03/16 07:24:03;;;;;;;1.33;1.27;;;16.30;99.90;;;;;;4868580;29;20432;-78
2024/03/16 07:26:30;;;;;;;1.57;1.43;;;18.10;99.90;;;;;;4873311;29;20518;-84
2024/03/16 07:28:58;;;;;;;1.03;1.03;;;17.20;99.90;;;;;;4866505;29;20470;-86
2024/03/16 07:31:25;;;;;;;1.93;1.80;;;17.10;99.90;;;;;;4869861;29;20465;-87
2024/03/16 07:33:54;;;;;;;1.90;1.47;;;16.60;99.90;;;;;;4878959;29;20430;-85
2024/03/16 07:36:25;;;;;;;1.13;1.13;;;16.10;99.90;;;;;;4870468;29;20985;-86
2024/03/16 07:38:53;;;;;;;1.57;1.47;;;17.00;99.90;;;;;;4866409;29;20439;-85
2024/03/16 07:41:22;;;;;;;1.23;1.20;;;19.90;99.90;;;;;;4870081;29;20459;-85
2024/03/16 07:43:49;;;;;;;2.83;2.60;;;21.70;94.60;;;;;;4862035;29;20726;-85
2024/03/16 07:46:16;;;;;;;1.57;1.47;;;20.90;90.80;;;;;;4860699;29;20452;-84
2024/03/16 07:48:44;;;;;;;2.03;1.93;;;22.20;89.70;;;;;;4870296;29;20495;-86
2024/03/16 07:51:13;;;;;;;11.47;2.40;;;21.50;88.30;;;;;;4879316;29;20510;-85
2024/03/16 07:53:41;;;;;;;2.13;2.03;;;21.00;94.40;;;;;;4868353;29;20552;-85
2024/03/16 07:56:09;;;;;;;2.70;2.00;;;23.20;85.80;;;;;;4863825;29;20465;-85
2024/03/16 07:58:37;;;;;;;1.33;1.33;;;22.80;82.80;;;;;;4870693;29;20458;-88
2024/03/16 08:01:04;;;;;;;1.53;1.53;;;19.40;91.00;;;;;;4868636;29;21043;-87
2024/03/16 08:03:31;;;;;;;1.10;1.10;;;17.70;99.90;;;;;;4865027;29;20774;-84
2024/03/16 08:06:03;;;;;;;1.40;1.40;;;17.00;99.90;;;;;;4867162;29;20714;-85
2024/03/16 08:08:31;;;;;;;1.40;1.40;;;16.80;99.90;;;;;;4874206;29;20766;-86
2024/03/16 08:10:58;;;;;;;1.77;1.67;;;16.50;99.90;;;;;;4888242;29;20741;-85
2024/03/16 08:13:25;;;;;;;1.10;1.10;;;16.10;99.90;;;;;;4877994;29;20432;-87
2024/03/16 08:16:00;;;;;;;2.00;1.90;;;16.00;99.90;;;;;;4887899;29;20448;-83
2024/03/16 08:18:30;;;;;;;17.53;3.17;;;16.00;99.90;;;;;;4876689;29;20728;-84
2024/03/16 08:20:57;;;;;;;1.77;1.67;;;17.40;99.90;;;;;;4870730;29;20464;-84
2024/03/16 08:23:24;;;;;;;1.40;1.40;;;17.60;99.90;;;;;;4869847;29;20449;-85
2024/03/16 08:25:52;;;;;;;1.60;1.50;;;16.80;99.90;;;;;;4873931;29;20560;-83
2024/03/16 08:28:20;;;;;;;1.47;1.47;;;17.20;99.90;;;;;;4853781;29;20493;-84
2024/03/16 08:30:47;;;;;;;1.77;1.67;;;19.40;99.90;;;;;;4870305;29;20453;-84
2024/03/16 08:33:14;;;;;;;1.97;1.87;;;21.50;95.00;;;;;;4892216;29;20441;-85
2024/03/16 08:35:41;;;;;;;1.43;1.40;;;21.80;87.60;;;;;;4879928;29;20431;-85
2024/03/16 08:38:10;;;;;;;2.23;2.13;;;20.80;92.10;;;;;;4872181;29;20458;-84
2024/03/16 08:40:37;;;;;;;1.47;1.40;;;19.80;93.50;;;;;;4880391;29;20445;-84
2024/03/16 08:43:04;;;;;;;2.63;2.43;;;19.20;99.90;;;;;;4889553;29;20449;-84
2024/03/16 08:45:31;;;;;;;0.90;0.90;;;18.40;99.90;;;;;;4894620;29;20666;-84
2024/03/16 08:48:01;;;;;;;0.90;0.90;;;19.00;99.90;;;;;;4896973;29;20450;-87
2024/03/16 08:50:29;;;;;;;1.67;1.57;;;19.90;99.90;;;;;;4875404;29;20449;-84
2024/03/16 08:52:56;;;;;;;1.20;1.10;;;20.90;92.10;;;;;;4864918;29;20838;-84
2024/03/16 08:55:24;;;;;;;1.47;1.47;;;20.80;91.30;;;;;;4861615;29;20475;-85
2024/03/16 08:57:51;;;;;;;1.20;1.20;;;20.80;90.10;;;;;;4869458;29;20478;-82
2024/03/16 09:00:19;;;;;;;1.23;1.13;;;19.40;91.80;;;;;;4859982;29;20465;-86
2024/03/16 09:02:46;;;;;;;1.83;1.73;;;19.00;99.90;;;;;;4877162;29;20462;-84
2024/03/16 09:05:13;;;;;;;1.20;1.20;;;18.50;99.90;;;;;;4866216;29;20477;-84
2024/03/16 09:07:40;;;;;;;0.90;0.90;;;18.20;99.90;;;;;;4864595;29;20488;-83
2024/03/16 09:10:08;;;;;;;3.67;3.33;;;17.70;99.90;;;;;;4865215;29;20569;-84
2024/03/16 09:12:36;;;;;;;1.30;1.30;;;17.60;99.90;;;;;;4869996;29;20454;-85
2024/03/16 09:15:08;;;;;;;1.07;1.07;;;17.30;99.90;;;;;;4869985;29;20461;-84
2024/03/16 09:17:39;;;;;;;1.20;1.20;;;17.10;99.90;;;;;;4869033;29;20457;-85
2024/03/16 09:20:10;;;;;;;1.27;1.27;;;17.50;99.90;;;;;;4868644;29;20458;-84
2024/03/16 09:22:38;;;;;;;1.40;1.40;;;17.20;99.90;;;;;;4884539;29;20458;-85
2024/03/16 09:25:11;;;;;;;0.90;0.90;;;17.30;99.90;;;;;;4885900;29;20925;-87
2024/03/16 09:27:40;;;;;;;1.27;1.27;;;17.40;99.90;;;;;;4878765;29;20431;-85
2024/03/16 09:30:08;;;;;;;0.90;0.90;;;17.30;99.90;;;;;;4869388;29;20454;-87
2024/03/16 09:32:37;;;;;;;0.97;0.97;;;17.30;99.90;;;;;;4890314;29;20445;-86
2024/03/16 09:35:06;;;;;;;2.13;2.03;;;17.20;99.90;;;;;;4879134;29;20454;-85
2024/03/16 09:37:33;;;;;;;1.73;1.67;;;16.90;99.90;;;;;;4883202;29;20440;-86
2024/03/16 09:40:13;;;;;;;3.60;3.30;;;16.80;99.90;;;;;;4879180;29;20456;-85
2024/03/16 09:42:40;;;;;;;0.80;0.80;;;17.00;99.90;;;;;;4872017;29;20499;-85
2024/03/16 09:45:19;;;;;;;0.93;0.93;;;17.40;99.90;;;;;;4866805;29;20987;-83
2024/03/16 09:47:46;;;;;;;0.90;0.90;;;17.40;99.90;;;;;;4869102;29;20510;-81
2024/03/16 09:50:14;;;;;;;1.10;1.10;;;17.00;99.90;;;;;;4861323;29;20459;-85
2024/03/16 09:52:43;;;;;;;1.40;1.40;;;17.00;99.90;;;;;;4860893;29;20452;-85
2024/03/16 09:55:09;;;;;;;1.53;1.43;;;17.40;99.90;;;;;;4870728;29;20490;-85
2024/03/16 09:57:38;;;;;;;1.47;1.20;;;18.00;99.90;;;;;;4859374;29;20455;-86
2024/03/16 10:00:11;;;;;;;2.43;2.23;;;18.60;99.90;;;;;;4866209;29;20453;-86
2024/03/16 10:02:38;;;;;;;0.80;0.80;;;18.70;97.60;;;;;;4864984;29;20426;-86
2024/03/16 10:05:05;;;;;;;1.40;1.30;;;18.30;96.60;;;;;;4848438;29;20757;-87
2024/03/16 10:07:32;;;;;;;0.80;0.80;;;17.80;99.90;;;;;;4865759;29;20497;-86
2024/03/16 10:09:57;;;;;;;1.00;1.00;;;17.30;99.90;;;;;;4853158;29;20907;-83
2024/03/16 10:12:24;;;;;;;1.00;1.00;;;16.90;99.90;;;;;;4873299;29;20433;-85
2024/03/16 10:15:15;;;;;;;1.13;1.13;;;16.60;99.90;;;;;;4860208;29;20423;-83
2024/03/16 10:17:45;;;;;;;1.53;1.43;;;16.50;99.90;;;;;;4850096;29;20460;-84
2024/03/16 10:20:18;;;;;;;0.80;0.80;;;16.30;99.90;;;;;;4862256;29;20421;-84
2024/03/16 10:22:50;;;;;;;0.80;0.80;;;16.10;99.90;;;;;;4867957;29;20418;-83
2024/03/16 10:25:18;;;;;;;0.70;0.70;;;16.10;99.90;;;;;;4853185;29;20423;-81
2024/03/16 10:27:45;;;;;;;0.70;0.70;;;16.20;99.90;;;;;;4862010;29;20428;-85
2024/03/16 10:30:16;;;;;;;1.00;1.00;;;16.30;99.90;;;;;;4864380;29;20448;-84
2024/03/16 10:32:49;;;;;;;1.00;1.00;;;16.60;99.90;;;;;;4851372;29;20421;-81
2024/03/16 10:35:25;;;;;;;0.70;0.70;;;16.50;99.90;;;;;;4862040;29;20404;-85
2024/03/16 10:37:52;;;;;;;0.90;0.90;;;16.60;99.90;;;;;;4864670;29;20432;-86
2024/03/16 10:40:21;;;;;;;0.70;0.70;;;16.90;99.90;;;;;;4874449;29;20442;-85
2024/03/16 10:42:50;;;;;;;1.00;1.00;;;17.40;99.90;;;;;;4846797;29;20435;-81
2024/03/16 10:45:20;;;;;;;1.23;1.23;;;17.50;99.90;;;;;;4859087;29;20416;-84
2024/03/16 10:47:53;;;;;;;1.00;1.00;;;18.10;99.90;;;;;;4849189;29;20445;-86
2024/03/16 10:50:21;;;;;;;1.67;1.60;;;18.60;99.90;;;;;;4872270;29;20458;-87
2024/03/16 10:52:48;;;;;;;2.43;2.30;;;18.30;99.40;;;;;;4870159;29;20432;-81
2024/03/16 10:55:22;;;;;;;0.80;0.80;;;18.30;98.60;;;;;;4859512;29;20437;-83
2024/03/16 10:57:49;;;;;;;0.90;0.90;;;18.50;99.90;;;;;;4885220;29;20452;-85
2024/03/16 11:00:34;;;;;;;0.80;0.80;;;18.00;99.90;;;;;;4876484;29;20811;-85
2024/03/16 11:03:08;;;;;;;0.80;0.80;;;17.60;99.90;;;;;;4862349;29;20513;-85
2024/03/16 11:05:35;;;;;;;0.73;0.73;;;17.40;99.90;;;;;;4877208;29;20446;-84
2024/03/16 11:08:13;;;;;;;0.97;0.97;;;17.40;99.90;;;;;;4872590;29;20434;-86
2024/03/16 11:10:48;;;;;;;0.83;0.83;;;17.90;99.90;;;;;;4860698;29;20443;-84
2024/03/16 11:13:23;;;;;;;0.70;0.70;;;18.10;99.80;;;;;;4879500;29;20449;-86
2024/03/16 11:15:50;;;;;;;1.50;1.50;;;18.00;98.10;;;;;;4888354;29;20473;-85
2024/03/16 11:18:16;;;;;;;0.80;0.80;;;17.80;98.70;;;;;;4888866;29;20624;-86
2024/03/16 11:20:43;;;;;;;1.20;1.20;;;17.70;99.50;;;;;;4883690;29;20509;-84
2024/03/16 11:23:43;;;;;;;0.70;0.70;;;17.50;99.90;;;;;;4872935;29;20199;-86
2024/03/16 11:26:27;;;;;;;0.80;0.80;;;17.40;99.90;;;;;;4834278;29;20542;-87
2024/03/16 11:29:25;;;;;;;0.70;0.70;;;17.40;99.90;;;;;;4862192;29;20440;-87
2024/03/16 11:31:53;;;;;;;0.80;0.80;;;17.80;99.90;;;;;;4847604;29;20510;-86
2024/03/16 11:34:25;;;;;;;0.80;0.80;;;18.30;96.30;;;;;;4860844;29;20433;-82
2024/03/16 11:36:55;;;;;;;1.10;1.10;;;18.20;93.00;;;;;;4866545;29;20438;-85
2024/03/16 11:39:25;;;;;;;0.80;0.80;;;18.40;94.90;;;;;;4852697;29;20452;-88
2024/03/16 11:41:54;;;;;;;0.80;0.80;;;18.20;90.90;;;;;;4851033;29;20445;-84
2024/03/16 11:44:20;;;;;;;1.67;1.60;;;18.00;93.10;;;;;;4853307;29;20443;-87
2024/03/16 11:46:48;;;;;;;0.80;0.80;;;17.60;94.10;;;;;;4854434;29;20781;-86
2024/03/16 11:49:16;;;;;;;1.10;1.10;;;17.70;94.40;;;;;;4855737;29;20453;-87
2024/03/16 11:51:43;;;;;;;0.90;0.90;;;17.60;99.00;;;;;;4868323;29;20441;-86
2024/03/16 11:54:15;;;;;;;0.80;0.80;;;17.70;95.60;;;;;;4879655;29;20421;-84
2024/03/16 11:56:43;;;;;;;0.80;0.80;;;17.40;99.90;;;;;;4868211;29;20433;-84
2024/03/16 11:59:16;;;;;;;0.80;0.80;;;17.50;99.90;;;;;;4869990;29;20410;-83
2024/03/16 12:01:50;;;;;;;1.53;1.43;;;17.70;99.90;;;;;;4869447;29;20460;-83
2024/03/16 12:04:20;;;;;;;0.90;0.90;;;17.60;99.90;;;;;;4855618;29;20475;-82
2024/03/16 12:06:49;;;;;;;0.97;0.97;;;17.50;99.90;;;;;;4865575;29;20502;-83
2024/03/16 12:09:17;;;;;;;1.10;1.10;;;17.40;94.70;;;;;;4862286;29;20417;-83
2024/03/16 12:11:50;;;;;;;0.80;0.80;;;17.30;98.90;;;;;;4846381;29;20415;-82
2024/03/16 12:14:21;;;;;;;1.23;1.23;;;17.40;95.90;;;;;;4863498;29;20429;-83
2024/03/16 12:16:49;;;;;;;0.70;0.70;;;17.20;99.60;;;;;;4863768;29;20751;-85
2024/03/16 12:19:19;;;;;;;1.00;1.00;;;17.30;99.90;;;;;;4870575;29;20440;-84
2024/03/16 12:21:49;;;;;;;0.77;0.77;;;17.40;99.90;;;;;;4868475;29;20828;-86
2024/03/16 12:24:19;;;;;;;0.73;0.73;;;17.60;99.90;;;;;;4878158;29;20773;-84
2024/03/16 12:26:51;;;;;;;0.80;0.80;;;17.90;96.50;;;;;;4861870;29;20596;-82
2024/03/16 12:29:18;;;;;;;0.60;0.60;;;18.10;98.40;;;;;;4846287;29;20647;-84
2024/03/16 12:31:45;;;;;;;0.80;0.80;;;18.30;95.60;;;;;;4860771;29;20483;-84
2024/03/16 12:34:13;;;;;;;0.80;0.80;;;18.50;94.70;;;;;;4862741;29;20424;-84
2024/03/16 12:36:41;;;;;;;0.60;0.60;;;18.10;92.00;;;;;;4850833;29;20475;-85
2024/03/16 12:39:10;;;;;;;0.60;0.60;;;18.00;92.80;;;;;;4865589;29;20449;-84
2024/03/16 12:41:57;;;;;;;0.70;0.70;;;18.10;92.80;;;;;;4864355;29;20423;-84
2024/03/16 12:44:23;;;;;;;1.20;0.80;;;17.80;93.80;;;;;;4868301;29;20423;-84
2024/03/16 12:46:50;;;;;;;0.70;0.70;;;17.80;93.30;;;;;;4875709;29;20485;-83
2024/03/16 12:49:16;;;;;;;0.70;0.70;;;17.70;93.90;;;;;;4863093;29;20195;-84
2024/03/16 12:51:42;;;;;;;0.90;0.90;;;17.70;96.30;;;;;;4849034;29;20504;-84
2024/03/16 12:54:09;;;;;;;0.60;0.60;;;17.70;94.00;;;;;;4861763;29;20220;-84
2024/03/16 12:56:47;;;;;;;0.70;0.70;;;17.70;95.00;;;;;;4857449;29;20424;-84
2024/03/16 12:59:16;;;;;;;1.93;1.83;;;17.70;96.40;;;;;;4860508;29;20421;-85
2024/03/16 13:01:42;;;;;;;1.13;1.13;;;17.80;98.70;;;;;;4857963;29;20426;-83